Stockton-on-Tees, United Kingdom
Current Conditions -  °F | °C
As of 9:50 PM on Thursday 30 Oct 2014 (Local Time) from EGNV Reporting Station
Scattered Clouds Scattered Clouds  
Wind Chill: 59°   Ceiling: Unl
Heat Index: 59°   Visibility: 6mi
Dew Point: 57°   Wind: 14mph
Humidity: 94%   Direction: 180°S
Pressure: 29.94"   Gusts: NA
Location:  54.57°N, 1.31°W
Report Text: EGNV 302150Z 18012KT 9999 FEW020 SCT045 15/14 Q1014
Loading
Personal Weather Stations






























Interactive Weather Map
Tropical Storm Tracking
New forecast layout! Learn more

10-Day Weather Forecast

Advertisements
Track Severe Weather on mobile